sensor_id;sensor_type;location;lat;lon;timestamp;pressure;altitude;pressure_sealevel;temperature;humidity
5753;BME280;2901;42.140;24.760;2022-10-26T00:02:19;99710.72;;;19.09;65.36
5753;BME280;2901;42.140;24.760;2022-10-26T00:04:45;99713.72;;;18.99;65.67
5753;BME280;2901;42.140;24.760;2022-10-26T00:07:10;99708.72;;;18.93;66.24
5753;BME280;2901;42.140;24.760;2022-10-26T00:09:36;99722.97;;;18.86;66.76
5753;BME280;2901;42.140;24.760;2022-10-26T00:12:02;99712.50;;;18.84;66.99
5753;BME280;2901;42.140;24.760;2022-10-26T00:14:27;99711.56;;;18.87;66.47
5753;BME280;2901;42.140;24.760;2022-10-26T00:16:53;99714.28;;;18.84;66.51
5753;BME280;2901;42.140;24.760;2022-10-26T00:19:19;99714.00;;;18.91;65.80
5753;BME280;2901;42.140;24.760;2022-10-26T00:21:44;99720.78;;;18.97;65.61
5753;BME280;2901;42.140;24.760;2022-10-26T00:24:10;99708.72;;;18.93;65.76
5753;BME280;2901;42.140;24.760;2022-10-26T00:26:36;99712.13;;;18.95;65.21
5753;BME280;2901;42.140;24.760;2022-10-26T00:29:02;99706.84;;;18.96;64.38
5753;BME280;2901;42.140;24.760;2022-10-26T00:31:28;99700.03;;;18.91;64.57
5753;BME280;2901;42.140;24.760;2022-10-26T00:33:54;99704.59;;;18.86;64.71
5753;BME280;2901;42.140;24.760;2022-10-26T00:36:22;99705.25;;;18.67;65.37
5753;BME280;2901;42.140;24.760;2022-10-26T00:38:53;99707.34;;;18.58;65.41
5753;BME280;2901;42.140;24.760;2022-10-26T00:41:27;99711.06;;;18.52;65.24
5753;BME280;2901;42.140;24.760;2022-10-26T00:43:54;99713.00;;;18.46;65.25
5753;BME280;2901;42.140;24.760;2022-10-26T00:46:33;99707.72;;;18.47;65.19
5753;BME280;2901;42.140;24.760;2022-10-26T00:49:02;99715.50;;;18.50;65.04
5753;BME280;2901;42.140;24.760;2022-10-26T00:51:55;99718.88;;;18.54;65.03
5753;BME280;2901;42.140;24.760;2022-10-26T00:54:20;99711.09;;;18.51;65.25
5753;BME280;2901;42.140;24.760;2022-10-26T00:56:48;99703.38;;;18.46;65.59
5753;BME280;2901;42.140;24.760;2022-10-26T00:59:16;99705.19;;;18.44;65.65
5753;BME280;2901;42.140;24.760;2022-10-26T01:01:44;99715.88;;;18.38;66.48
5753;BME280;2901;42.140;24.760;2022-10-26T01:04:11;99707.22;;;18.36;66.98
5753;BME280;2901;42.140;24.760;2022-10-26T01:06:37;99693.28;;;18.34;67.39
5753;BME280;2901;42.140;24.760;2022-10-26T01:09:04;99699.47;;;18.33;68.16
5753;BME280;2901;42.140;24.760;2022-10-26T01:11:30;99706.41;;;18.34;68.33
5753;BME280;2901;42.140;24.760;2022-10-26T01:13:57;99709.03;;;18.34;68.72
5753;BME280;2901;42.140;24.760;2022-10-26T01:16:48;99710.53;;;18.41;68.87
5753;BME280;2901;42.140;24.760;2022-10-26T01:19:59;99706.97;;;18.44;68.77
5753;BME280;2901;42.140;24.760;2022-10-26T01:22:52;99719.91;;;18.50;68.64
5753;BME280;2901;42.140;24.760;2022-10-26T01:27:50;99715.78;;;18.41;69.60
5753;BME280;2901;42.140;24.760;2022-10-26T01:30:37;99713.16;;;18.41;69.54
5753;BME280;2901;42.140;24.760;2022-10-26T01:39:09;99712.16;;;18.45;69.71
5753;BME280;2901;42.140;24.760;2022-10-26T01:41:51;99709.28;;;18.53;68.95
5753;BME280;2901;42.140;24.760;2022-10-26T01:44:20;99716.19;;;18.55;68.19
5753;BME280;2901;42.140;24.760;2022-10-26T01:46:50;99712.44;;;18.62;67.60
5753;BME280;2901;42.140;24.760;2022-10-26T01:49:21;99706.34;;;18.62;67.29
5753;BME280;2901;42.140;24.760;2022-10-26T01:51:48;99710.69;;;18.63;66.92
5753;BME280;2901;42.140;24.760;2022-10-26T01:54:14;99703.78;;;18.60;66.98
5753;BME280;2901;42.140;24.760;2022-10-26T01:56:41;99704.50;;;18.64;66.36
5753;BME280;2901;42.140;24.760;2022-10-26T02:09:34;99687.41;;;18.54;66.38
5753;BME280;2901;42.140;24.760;2022-10-26T02:12:10;99697.72;;;18.58;66.08
5753;BME280;2901;42.140;24.760;2022-10-26T02:20:08;99700.53;;;18.54;66.01
5753;BME280;2901;42.140;24.760;2022-10-26T02:22:41;99705.03;;;18.50;66.43
5753;BME280;2901;42.140;24.760;2022-10-26T02:25:16;99705.78;;;18.54;66.37
5753;BME280;2901;42.140;24.760;2022-10-26T02:27:48;99702.09;;;18.58;66.87
5753;BME280;2901;42.140;24.760;2022-10-26T02:30:15;99708.09;;;18.61;66.64
5753;BME280;2901;42.140;24.760;2022-10-26T02:32:44;99700.22;;;18.61;66.91
5753;BME280;2901;42.140;24.760;2022-10-26T02:35:11;99707.09;;;18.65;66.98
5753;BME280;2901;42.140;24.760;2022-10-26T02:37:39;99701.47;;;18.76;66.54
5753;BME280;2901;42.140;24.760;2022-10-26T02:40:10;99703.16;;;18.77;66.56
5753;BME280;2901;42.140;24.760;2022-10-26T02:42:39;99706.41;;;18.84;65.72
5753;BME280;2901;42.140;24.760;2022-10-26T02:45:10;99710.53;;;18.91;65.54
5753;BME280;2901;42.140;24.760;2022-10-26T02:47:36;99704.31;;;18.93;64.59
5753;BME280;2901;42.140;24.760;2022-10-26T02:50:02;99706.38;;;18.85;65.00
5753;BME280;2901;42.140;24.760;2022-10-26T02:55:31;99718.59;;;18.86;65.39
5753;BME280;2901;42.140;24.760;2022-10-26T02:58:01;99708.31;;;18.80;65.71
5753;BME280;2901;42.140;24.760;2022-10-26T03:00:28;99718.81;;;18.80;66.19
5753;BME280;2901;42.140;24.760;2022-10-26T03:02:56;99719.00;;;18.74;66.47
5753;BME280;2901;42.140;24.760;2022-10-26T03:05:24;99718.06;;;18.77;67.00
5753;BME280;2901;42.140;24.760;2022-10-26T03:07:51;99711.78;;;18.81;67.02
5753;BME280;2901;42.140;24.760;2022-10-26T03:10:16;99710.00;;;18.81;67.09
5753;BME280;2901;42.140;24.760;2022-10-26T03:12:42;99718.47;;;18.89;66.68
5753;BME280;2901;42.140;24.760;2022-10-26T03:15:08;99708.53;;;18.97;66.70
5753;BME280;2901;42.140;24.760;2022-10-26T03:17:33;99721.41;;;19.03;66.72
5753;BME280;2901;42.140;24.760;2022-10-26T03:19:58;99719.38;;;19.11;66.17
5753;BME280;2901;42.140;24.760;2022-10-26T03:22:24;99718.50;;;19.11;65.83
5753;BME280;2901;42.140;24.760;2022-10-26T03:24:49;99710.75;;;19.08;64.49
5753;BME280;2901;42.140;24.760;2022-10-26T03:27:14;99727.47;;;19.05;63.86
5753;BME280;2901;42.140;24.760;2022-10-26T03:29:40;99721.66;;;18.97;63.81
5753;BME280;2901;42.140;24.760;2022-10-26T03:32:05;99719.22;;;18.93;63.64
5753;BME280;2901;42.140;24.760;2022-10-26T03:34:31;99712.47;;;18.86;63.56
5753;BME280;2901;42.140;24.760;2022-10-26T03:36:56;99713.34;;;18.86;63.90
5753;BME280;2901;42.140;24.760;2022-10-26T03:39:22;99712.69;;;18.80;64.13
5753;BME280;2901;42.140;24.760;2022-10-26T03:41:47;99720.69;;;18.77;64.25
5753;BME280;2901;42.140;24.760;2022-10-26T03:44:12;99721.69;;;18.73;64.31
5753;BME280;2901;42.140;24.760;2022-10-26T03:46:38;99735.69;;;18.73;64.31
5753;BME280;2901;42.140;24.760;2022-10-26T03:49:03;99724.53;;;18.67;64.45
5753;BME280;2901;42.140;24.760;2022-10-26T03:51:29;99738.59;;;18.64;64.94
5753;BME280;2901;42.140;24.760;2022-10-26T03:53:55;99743.03;;;18.63;65.06
5753;BME280;2901;42.140;24.760;2022-10-26T03:56:20;99742.28;;;18.60;65.86
5753;BME280;2901;42.140;24.760;2022-10-26T03:58:46;99744.16;;;18.56;66.89
5753;BME280;2901;42.140;24.760;2022-10-26T04:01:11;99750.28;;;18.55;66.85
5753;BME280;2901;42.140;24.760;2022-10-26T04:03:36;99747.09;;;18.46;66.96
5753;BME280;2901;42.140;24.760;2022-10-26T04:06:02;99743.72;;;18.42;66.90
5753;BME280;2901;42.140;24.760;2022-10-26T04:08:28;99757.28;;;18.29;67.09
5753;BME280;2901;42.140;24.760;2022-10-26T04:10:53;99756.00;;;18.15;68.02
5753;BME280;2901;42.140;24.760;2022-10-26T04:13:19;99756.34;;;18.05;68.76
5753;BME280;2901;42.140;24.760;2022-10-26T04:15:44;99762.72;;;17.98;69.57
5753;BME280;2901;42.140;24.760;2022-10-26T04:18:10;99763.81;;;17.91;70.00
5753;BME280;2901;42.140;24.760;2022-10-26T04:20:39;99768.97;;;17.92;69.75
5753;BME280;2901;42.140;24.760;2022-10-26T04:23:11;99766.63;;;17.85;70.21
5753;BME280;2901;42.140;24.760;2022-10-26T04:25:36;99761.38;;;17.85;70.38
5753;BME280;2901;42.140;24.760;2022-10-26T04:28:04;99772.75;;;17.84;70.00
5753;BME280;2901;42.140;24.760;2022-10-26T04:30:30;99778.91;;;17.83;69.67
5753;BME280;2901;42.140;24.760;2022-10-26T04:32:56;99784.22;;;17.81;68.99
5753;BME280;2901;42.140;24.760;2022-10-26T04:35:21;99783.28;;;17.82;69.84
5753;BME280;2901;42.140;24.760;2022-10-26T04:37:47;99782.63;;;17.76;70.18
5753;BME280;2901;42.140;24.760;2022-10-26T04:40:12;99784.44;;;17.74;70.55
5753;BME280;2901;42.140;24.760;2022-10-26T04:42:45;99784.53;;;17.71;70.39
5753;BME280;2901;42.140;24.760;2022-10-26T04:45:12;99788.94;;;17.69;70.37
5753;BME280;2901;42.140;24.760;2022-10-26T04:47:38;99802.97;;;17.68;69.80
5753;BME280;2901;42.140;24.760;2022-10-26T04:50:04;99795.19;;;17.65;69.69
5753;BME280;2901;42.140;24.760;2022-10-26T04:52:30;99798.66;;;17.65;70.18
5753;BME280;2901;42.140;24.760;2022-10-26T04:54:55;99810.91;;;17.65;70.20
5753;BME280;2901;42.140;24.760;2022-10-26T04:57:20;99799.09;;;17.50;70.64
5753;BME280;2901;42.140;24.760;2022-10-26T04:59:46;99803.16;;;17.61;70.87
5753;BME280;2901;42.140;24.760;2022-10-26T05:02:11;99814.53;;;17.60;71.21
5753;BME280;2901;42.140;24.760;2022-10-26T05:04:37;99811.75;;;17.65;71.40
5753;BME280;2901;42.140;24.760;2022-10-26T05:07:02;99816.19;;;17.63;71.65
5753;BME280;2901;42.140;24.760;2022-10-26T05:09:28;99811.81;;;17.63;72.32
5753;BME280;2901;42.140;24.760;2022-10-26T05:11:53;99810.09;;;17.62;72.27
5753;BME280;2901;42.140;24.760;2022-10-26T05:14:18;99810.00;;;17.66;72.31
5753;BME280;2901;42.140;24.760;2022-10-26T05:16:44;99812.50;;;17.69;72.25
5753;BME280;2901;42.140;24.760;2022-10-26T05:19:09;99818.34;;;17.78;71.92
5753;BME280;2901;42.140;24.760;2022-10-26T05:21:35;99817.41;;;17.81;71.81
5753;BME280;2901;42.140;24.760;2022-10-26T05:24:00;99832.16;;;17.83;71.52
5753;BME280;2901;42.140;24.760;2022-10-26T05:26:26;99836.22;;;17.93;71.00
5753;BME280;2901;42.140;24.760;2022-10-26T05:28:52;99834.25;;;18.00;70.79
5753;BME280;2901;42.140;24.760;2022-10-26T05:31:18;99841.94;;;18.06;70.63
5753;BME280;2901;42.140;24.760;2022-10-26T05:33:43;99844.44;;;18.09;70.46
5753;BME280;2901;42.140;24.760;2022-10-26T05:36:09;99848.69;;;18.13;70.28
5753;BME280;2901;42.140;24.760;2022-10-26T05:38:34;99842.47;;;18.17;70.40
5753;BME280;2901;42.140;24.760;2022-10-26T05:40:59;99845.94;;;18.18;70.54
5753;BME280;2901;42.140;24.760;2022-10-26T05:43:27;99851.97;;;18.20;70.76
5753;BME280;2901;42.140;24.760;2022-10-26T05:45:53;99852.66;;;18.26;70.25
5753;BME280;2901;42.140;24.760;2022-10-26T05:48:19;99849.03;;;18.30;69.96
5753;BME280;2901;42.140;24.760;2022-10-26T05:50:45;99848.84;;;18.35;70.12
5753;BME280;2901;42.140;24.760;2022-10-26T05:53:11;99852.25;;;18.38;69.93
5753;BME280;2901;42.140;24.760;2022-10-26T05:55:36;99859.09;;;18.42;69.62
5753;BME280;2901;42.140;24.760;2022-10-26T05:58:02;99858.84;;;18.51;69.24
5753;BME280;2901;42.140;24.760;2022-10-26T06:00:29;99848.34;;;18.51;68.97
5753;BME280;2901;42.140;24.760;2022-10-26T06:05:36;99860.84;;;18.70;68.85
5753;BME280;2901;42.140;24.760;2022-10-26T06:08:07;99870.34;;;18.74;68.65
5753;BME280;2901;42.140;24.760;2022-10-26T06:10:34;99873.75;;;18.76;68.80
5753;BME280;2901;42.140;24.760;2022-10-26T06:12:59;99884.94;;;18.81;68.63
5753;BME280;2901;42.140;24.760;2022-10-26T06:15:25;99875.09;;;18.87;68.05
5753;BME280;2901;42.140;24.760;2022-10-26T06:20:48;99886.00;;;19.01;68.06
5753;BME280;2901;42.140;24.760;2022-10-26T06:23:31;99884.72;;;19.13;67.84
5753;BME280;2901;42.140;24.760;2022-10-26T06:26:32;99883.53;;;19.22;67.42
5753;BME280;2901;42.140;24.760;2022-10-26T06:31:33;99898.59;;;19.41;66.96
5753;BME280;2901;42.140;24.760;2022-10-26T06:33:59;99892.97;;;19.52;66.63
5753;BME280;2901;42.140;24.760;2022-10-26T06:36:26;99897.78;;;19.64;66.05
5753;BME280;2901;42.140;24.760;2022-10-26T06:39:02;99894.78;;;19.73;65.99
5753;BME280;2901;42.140;24.760;2022-10-26T06:41:33;99895.38;;;19.81;65.53
5753;BME280;2901;42.140;24.760;2022-10-26T06:43:59;99901.13;;;19.91;64.76
5753;BME280;2901;42.140;24.760;2022-10-26T06:46:36;99903.47;;;19.98;64.46
5753;BME280;2901;42.140;24.760;2022-10-26T06:49:21;99907.47;;;20.08;64.44
5753;BME280;2901;42.140;24.760;2022-10-26T06:51:56;99908.84;;;20.18;63.69
5753;BME280;2901;42.140;24.760;2022-10-26T06:54:28;99904.88;;;20.30;63.18
5753;BME280;2901;42.140;24.760;2022-10-26T06:56:55;99915.72;;;20.44;62.45
5753;BME280;2901;42.140;24.760;2022-10-26T06:59:43;99920.00;;;20.47;61.86
5753;BME280;2901;42.140;24.760;2022-10-26T07:02:13;99911.13;;;20.49;61.92
5753;BME280;2901;42.140;24.760;2022-10-26T07:04:41;99916.13;;;20.55;61.55
5753;BME280;2901;42.140;24.760;2022-10-26T07:07:12;99902.06;;;20.56;61.19
5753;BME280;2901;42.140;24.760;2022-10-26T07:09:38;99911.25;;;20.68;60.91
5753;BME280;2901;42.140;24.760;2022-10-26T07:12:05;99905.34;;;20.83;60.82
5753;BME280;2901;42.140;24.760;2022-10-26T07:14:31;99905.69;;;20.96;59.41
5753;BME280;2901;42.140;24.760;2022-10-26T07:16:56;99912.13;;;20.89;60.48
5753;BME280;2901;42.140;24.760;2022-10-26T07:19:22;99915.69;;;20.88;60.48
5753;BME280;2901;42.140;24.760;2022-10-26T07:21:48;99911.38;;;20.85;60.09
5753;BME280;2901;42.140;24.760;2022-10-26T07:24:13;99924.41;;;20.88;60.37
5753;BME280;2901;42.140;24.760;2022-10-26T07:26:39;99920.44;;;21.00;59.82
5753;BME280;2901;42.140;24.760;2022-10-26T07:29:04;99914.94;;;21.04;59.70
5753;BME280;2901;42.140;24.760;2022-10-26T07:31:30;99926.13;;;21.11;59.31
5753;BME280;2901;42.140;24.760;2022-10-26T07:33:55;99915.47;;;21.14;59.21
5753;BME280;2901;42.140;24.760;2022-10-26T07:36:21;99918.56;;;21.24;58.93
5753;BME280;2901;42.140;24.760;2022-10-26T07:38:50;99925.16;;;21.34;58.36
5753;BME280;2901;42.140;24.760;2022-10-26T07:41:16;99916.53;;;21.30;58.50
5753;BME280;2901;42.140;24.760;2022-10-26T07:43:41;99919.41;;;21.24;58.69
5753;BME280;2901;42.140;24.760;2022-10-26T07:46:09;99909.94;;;21.20;59.10
5753;BME280;2901;42.140;24.760;2022-10-26T07:48:34;99913.81;;;21.32;59.21
5753;BME280;2901;42.140;24.760;2022-10-26T07:51:00;99915.31;;;21.37;58.56
5753;BME280;2901;42.140;24.760;2022-10-26T07:53:26;99913.78;;;21.52;58.78
5753;BME280;2901;42.140;24.760;2022-10-26T07:55:56;99906.91;;;21.68;58.37
5753;BME280;2901;42.140;24.760;2022-10-26T07:58:22;99912.31;;;21.84;57.95
5753;BME280;2901;42.140;24.760;2022-10-26T08:00:53;99913.66;;;21.94;57.45
5753;BME280;2901;42.140;24.760;2022-10-26T08:03:19;99914.59;;;21.93;57.47
5753;BME280;2901;42.140;24.760;2022-10-26T08:05:46;99905.69;;;21.95;57.75
5753;BME280;2901;42.140;24.760;2022-10-26T08:08:12;99901.75;;;22.04;57.33
5753;BME280;2901;42.140;24.760;2022-10-26T08:10:44;99893.53;;;22.10;56.88
5753;BME280;2901;42.140;24.760;2022-10-26T08:13:10;99893.53;;;22.29;56.49
5753;BME280;2901;42.140;24.760;2022-10-26T08:15:35;99897.00;;;22.48;56.20
5753;BME280;2901;42.140;24.760;2022-10-26T08:18:01;99903.75;;;22.53;55.24
5753;BME280;2901;42.140;24.760;2022-10-26T08:20:26;99895.13;;;22.68;55.46
5753;BME280;2901;42.140;24.760;2022-10-26T08:22:51;99901.03;;;22.73;53.87
5753;BME280;2901;42.140;24.760;2022-10-26T08:25:17;99905.28;;;22.76;53.41
5753;BME280;2901;42.140;24.760;2022-10-26T08:27:43;99888.19;;;22.66;53.48
5753;BME280;2901;42.140;24.760;2022-10-26T08:30:08;99907.59;;;22.65;53.65
5753;BME280;2901;42.140;24.760;2022-10-26T08:32:34;99892.94;;;22.77;53.75
5753;BME280;2901;42.140;24.760;2022-10-26T08:34:59;99884.41;;;22.89;52.72
5753;BME280;2901;42.140;24.760;2022-10-26T08:37:25;99898.25;;;22.94;51.67
5753;BME280;2901;42.140;24.760;2022-10-26T08:39:51;99894.69;;;22.95;51.90
5753;BME280;2901;42.140;24.760;2022-10-26T08:42:24;99897.00;;;23.01;51.15
5753;BME280;2901;42.140;24.760;2022-10-26T08:45:00;99903.06;;;23.03;51.46
5753;BME280;2901;42.140;24.760;2022-10-26T08:47:31;99898.25;;;23.11;49.81
5753;BME280;2901;42.140;24.760;2022-10-26T08:55:43;99899.53;;;23.54;49.01
5753;BME280;2901;42.140;24.760;2022-10-26T08:58:17;99900.81;;;23.62;48.01
5753;BME280;2901;42.140;24.760;2022-10-26T09:00:47;99892.41;;;23.71;47.87
5753;BME280;2901;42.140;24.760;2022-10-26T09:03:15;99899.34;;;23.74;46.67
5753;BME280;2901;42.140;24.760;2022-10-26T09:14:48;99888.50;;;23.94;46.13
5753;BME280;2901;42.140;24.760;2022-10-26T09:25:37;99887.34;;;24.15;44.48
5753;BME280;2901;42.140;24.760;2022-10-26T09:28:03;99876.69;;;24.17;44.35
5753;BME280;2901;42.140;24.760;2022-10-26T09:30:30;99877.59;;;24.32;43.90
5753;BME280;2901;42.140;24.760;2022-10-26T09:33:01;99880.22;;;24.47;43.60
5753;BME280;2901;42.140;24.760;2022-10-26T09:35:43;99883.06;;;24.60;42.18
5753;BME280;2901;42.140;24.760;2022-10-26T09:38:29;99881.22;;;24.60;41.89
5753;BME280;2901;42.140;24.760;2022-10-26T09:41:07;99880.47;;;24.58;42.00
5753;BME280;2901;42.140;24.760;2022-10-26T09:46:01;99870.47;;;24.63;41.57
5753;BME280;2901;42.140;24.760;2022-10-26T09:48:37;99878.94;;;24.54;41.82
5753;BME280;2901;42.140;24.760;2022-10-26T09:51:04;99872.09;;;24.66;41.21
5753;BME280;2901;42.140;24.760;2022-10-26T09:53:30;99865.56;;;24.87;40.80
5753;BME280;2901;42.140;24.760;2022-10-26T09:56:10;99873.38;;;25.04;40.09
5753;BME280;2901;42.140;24.760;2022-10-26T09:59:03;99868.13;;;24.89;40.06
5753;BME280;2901;42.140;24.760;2022-10-26T10:01:34;99861.44;;;24.82;39.84
5753;BME280;2901;42.140;24.760;2022-10-26T10:06:41;99864.97;;;25.12;39.91
5753;BME280;2901;42.140;24.760;2022-10-26T10:09:15;99854.34;;;25.26;39.21
5753;BME280;2901;42.140;24.760;2022-10-26T10:11:47;99852.84;;;25.36;39.33
5753;BME280;2901;42.140;24.760;2022-10-26T10:14:20;99849.72;;;25.44;39.57
5753;BME280;2901;42.140;24.760;2022-10-26T10:19:32;99843.41;;;25.74;39.02
5753;BME280;2901;42.140;24.760;2022-10-26T10:21:59;99848.53;;;25.63;38.67
5753;BME280;2901;42.140;24.760;2022-10-26T10:24:32;99839.44;;;25.53;38.90
5753;BME280;2901;42.140;24.760;2022-10-26T10:29:56;99832.81;;;25.60;39.22
5753;BME280;2901;42.140;24.760;2022-10-26T10:32:24;99837.72;;;25.80;38.72
5753;BME280;2901;42.140;24.760;2022-10-26T10:34:53;99834.47;;;25.90;37.89
5753;BME280;2901;42.140;24.760;2022-10-26T10:37:39;99826.81;;;26.12;36.98
5753;BME280;2901;42.140;24.760;2022-10-26T10:40:16;99824.06;;;26.13;37.41
5753;BME280;2901;42.140;24.760;2022-10-26T10:42:44;99831.28;;;26.11;37.10
5753;BME280;2901;42.140;24.760;2022-10-26T10:45:29;99816.91;;;26.01;37.46
5753;BME280;2901;42.140;24.760;2022-10-26T10:48:16;99817.38;;;26.08;37.21
5753;BME280;2901;42.140;24.760;2022-10-26T10:50:57;99807.78;;;26.05;37.40
5753;BME280;2901;42.140;24.760;2022-10-26T10:56:13;99800.69;;;26.33;36.77
5753;BME280;2901;42.140;24.760;2022-10-26T11:01:18;99784.69;;;26.47;36.18
5753;BME280;2901;42.140;24.760;2022-10-26T11:03:56;99800.09;;;26.54;36.47
5753;BME280;2901;42.140;24.760;2022-10-26T11:06:28;99789.31;;;26.57;36.46
5753;BME280;2901;42.140;24.760;2022-10-26T11:09:18;99791.97;;;26.70;35.75
5753;BME280;2901;42.140;24.760;2022-10-26T11:11:49;99782.41;;;26.80;36.41
5753;BME280;2901;42.140;24.760;2022-10-26T11:14:30;99790.00;;;26.99;34.96
5753;BME280;2901;42.140;24.760;2022-10-26T11:17:08;99786.41;;;26.87;35.51
5753;BME280;2901;42.140;24.760;2022-10-26T11:22:16;99787.13;;;26.89;35.55
5753;BME280;2901;42.140;24.760;2022-10-26T11:24:46;99780.75;;;26.92;35.27
5753;BME280;2901;42.140;24.760;2022-10-26T11:30:05;99774.97;;;26.72;35.31
5753;BME280;2901;42.140;24.760;2022-10-26T11:32:43;99777.81;;;26.69;34.98
5753;BME280;2901;42.140;24.760;2022-10-26T11:35:25;99771.78;;;26.67;34.97
5753;BME280;2901;42.140;24.760;2022-10-26T11:43:48;99771.59;;;27.08;34.31
5753;BME280;2901;42.140;24.760;2022-10-26T11:46:21;99775.31;;;27.18;33.44
5753;BME280;2901;42.140;24.760;2022-10-26T11:48:58;99765.81;;;27.27;33.73
5753;BME280;2901;42.140;24.760;2022-10-26T11:53:54;99764.03;;;27.27;33.16
5753;BME280;2901;42.140;24.760;2022-10-26T11:56:32;99763.28;;;26.88;34.06
5753;BME280;2901;42.140;24.760;2022-10-26T11:59:00;99771.34;;;26.61;34.54
5753;BME280;2901;42.140;24.760;2022-10-26T12:01:27;99768.31;;;26.40;34.54
5753;BME280;2901;42.140;24.760;2022-10-26T12:03:53;99767.34;;;26.41;34.75
5753;BME280;2901;42.140;24.760;2022-10-26T12:06:24;99760.88;;;26.45;34.88
5753;BME280;2901;42.140;24.760;2022-10-26T12:09:12;99762.47;;;26.48;34.80
5753;BME280;2901;42.140;24.760;2022-10-26T12:11:51;99757.28;;;26.59;34.86
5753;BME280;2901;42.140;24.760;2022-10-26T12:14:25;99751.91;;;26.60;34.07
5753;BME280;2901;42.140;24.760;2022-10-26T12:17:09;99755.19;;;26.76;33.96
5753;BME280;2901;42.140;24.760;2022-10-26T12:22:32;99755.22;;;27.02;34.10
5753;BME280;2901;42.140;24.760;2022-10-26T12:35:27;99751.28;;;27.20;34.64
5753;BME280;2901;42.140;24.760;2022-10-26T12:37:48;99750.53;;;27.18;34.96
5753;BME280;2901;42.140;24.760;2022-10-26T12:42:55;99741.19;;;27.00;34.89
5753;BME280;2901;42.140;24.760;2022-10-26T12:45:21;99749.69;;;26.92;35.23
5753;BME280;2901;42.140;24.760;2022-10-26T12:57:44;99757.22;;;26.60;36.29
5753;BME280;2901;42.140;24.760;2022-10-26T13:00:14;99758.25;;;26.58;35.91
5753;BME280;2901;42.140;24.760;2022-10-26T13:08:44;99754.78;;;26.70;35.75
5753;BME280;2901;42.140;24.760;2022-10-26T13:11:18;99754.66;;;26.71;35.47
5753;BME280;2901;42.140;24.760;2022-10-26T13:13:52;99752.97;;;26.70;35.58
5753;BME280;2901;42.140;24.760;2022-10-26T13:16:18;99750.81;;;26.75;35.92
5753;BME280;2901;42.140;24.760;2022-10-26T13:18:45;99750.63;;;26.66;35.66
5753;BME280;2901;42.140;24.760;2022-10-26T13:21:16;99754.13;;;26.66;35.95
5753;BME280;2901;42.140;24.760;2022-10-26T13:23:45;99759.66;;;26.76;35.76
5753;BME280;2901;42.140;24.760;2022-10-26T13:26:14;99755.84;;;26.80;35.74
5753;BME280;2901;42.140;24.760;2022-10-26T13:31:13;99753.69;;;26.72;35.60
5753;BME280;2901;42.140;24.760;2022-10-26T13:33:42;99752.31;;;26.67;35.56
5753;BME280;2901;42.140;24.760;2022-10-26T13:38:54;99754.59;;;26.34;35.84
5753;BME280;2901;42.140;24.760;2022-10-26T13:41:31;99749.81;;;26.12;36.31
5753;BME280;2901;42.140;24.760;2022-10-26T13:44:01;99745.56;;;26.09;36.24
5753;BME280;2901;42.140;24.760;2022-10-26T13:46:28;99752.44;;;25.99;36.40
5753;BME280;2901;42.140;24.760;2022-10-26T13:49:06;99754.16;;;26.00;36.46
5753;BME280;2901;42.140;24.760;2022-10-26T13:51:48;99760.19;;;26.02;36.34
5753;BME280;2901;42.140;24.760;2022-10-26T13:54:22;99763.72;;;26.03;36.06
5753;BME280;2901;42.140;24.760;2022-10-26T14:00:23;99770.78;;;25.90;36.02
5753;BME280;2901;42.140;24.760;2022-10-26T14:02:48;99769.66;;;25.79;36.41
5753;BME280;2901;42.140;24.760;2022-10-26T14:05:17;99762.09;;;25.73;36.55
5753;BME280;2901;42.140;24.760;2022-10-26T14:10:29;99779.94;;;25.71;37.01
5753;BME280;2901;42.140;24.760;2022-10-26T14:12:57;99780.59;;;25.75;36.74
5753;BME280;2901;42.140;24.760;2022-10-26T14:15:26;99777.06;;;25.74;36.79
5753;BME280;2901;42.140;24.760;2022-10-26T14:17:54;99782.59;;;25.71;36.93
5753;BME280;2901;42.140;24.760;2022-10-26T14:20:22;99789.69;;;25.71;36.54
5753;BME280;2901;42.140;24.760;2022-10-26T14:22:48;99791.63;;;25.55;36.98
5753;BME280;2901;42.140;24.760;2022-10-26T14:25:22;99794.53;;;25.50;36.87
5753;BME280;2901;42.140;24.760;2022-10-26T14:27:49;99790.06;;;25.37;36.91
5753;BME280;2901;42.140;24.760;2022-10-26T14:32:50;99788.06;;;25.26;36.70
5753;BME280;2901;42.140;24.760;2022-10-26T14:35:17;99802.38;;;25.23;37.10
5753;BME280;2901;42.140;24.760;2022-10-26T14:37:52;99803.81;;;25.15;36.74
5753;BME280;2901;42.140;24.760;2022-10-26T14:40:20;99802.28;;;25.11;36.88
5753;BME280;2901;42.140;24.760;2022-10-26T14:42:50;99805.88;;;25.10;37.59
5753;BME280;2901;42.140;24.760;2022-10-26T14:45:38;99803.41;;;25.07;37.62
5753;BME280;2901;42.140;24.760;2022-10-26T14:48:05;99814.38;;;25.01;37.50
5753;BME280;2901;42.140;24.760;2022-10-26T14:50:31;99814.09;;;24.91;37.88
5753;BME280;2901;42.140;24.760;2022-10-26T14:53:03;99814.16;;;24.90;37.82
5753;BME280;2901;42.140;24.760;2022-10-26T14:55:48;99815.13;;;24.89;38.03
5753;BME280;2901;42.140;24.760;2022-10-26T14:58:19;99814.34;;;24.87;37.90
5753;BME280;2901;42.140;24.760;2022-10-26T15:00:46;99825.78;;;24.73;38.18
5753;BME280;2901;42.140;24.760;2022-10-26T15:03:15;99820.25;;;24.62;38.55
5753;BME280;2901;42.140;24.760;2022-10-26T15:05:41;99818.22;;;24.51;38.71
5753;BME280;2901;42.140;24.760;2022-10-26T15:08:39;99814.41;;;24.41;38.74
5753;BME280;2901;42.140;24.760;2022-10-26T15:11:07;99817.31;;;24.37;39.56
5753;BME280;2901;42.140;24.760;2022-10-26T15:13:33;99818.88;;;24.25;39.44
5753;BME280;2901;42.140;24.760;2022-10-26T15:16:16;99814.97;;;24.16;39.68
5753;BME280;2901;42.140;24.760;2022-10-26T15:18:43;99822.63;;;24.05;40.26
5753;BME280;2901;42.140;24.760;2022-10-26T15:21:24;99823.13;;;23.96;40.48
5753;BME280;2901;42.140;24.760;2022-10-26T15:23:51;99828.78;;;23.90;40.42
5753;BME280;2901;42.140;24.760;2022-10-26T15:26:18;99828.75;;;23.74;41.35
5753;BME280;2901;42.140;24.760;2022-10-26T15:28:44;99839.16;;;23.62;41.20
5753;BME280;2901;42.140;24.760;2022-10-26T15:34:05;99841.28;;;23.38;42.20
5753;BME280;2901;42.140;24.760;2022-10-26T15:36:32;99839.06;;;23.31;42.50
5753;BME280;2901;42.140;24.760;2022-10-26T15:38:59;99839.47;;;23.23;42.40
5753;BME280;2901;42.140;24.760;2022-10-26T15:41:31;99840.66;;;23.17;42.96